Time;durP1;ratioP1;P1;durP2;ratioP2;P2;SDS_P1;SDS_P2;PMS_P1;PMS_P2;Temp;Humidity;BMP_temperature;BMP_pressure;BME280_temperature;BME280_humidity;BME280_pressure;Samples;Min_cycle;Max_cycle;Signal;HPM_P1;HPM_P2
2022/05/24 00:00:05;;;;;;;7.65;4.95;;;14.60;99.90;;;;;;5051991;28;20055;-46
2022/05/24 00:02:31;;;;;;;10.80;6.15;;;14.50;99.90;;;;;;5055855;28;20047;-45
2022/05/24 00:04:56;;;;;;;10.90;8.47;;;14.50;99.90;;;;;;5050770;28;20048;-46
2022/05/24 00:07:22;;;;;;;9.93;8.93;;;14.50;99.90;;;;;;5067548;28;20287;-46
2022/05/24 00:09:48;;;;;;;10.40;8.93;;;14.50;99.90;;;;;;5104206;28;20302;-47
2022/05/24 00:12:13;;;;;;;12.98;9.35;;;14.50;99.90;;;;;;5068667;28;20112;-46
2022/05/24 00:17:23;;;;;;;15.48;9.98;;;14.40;99.90;;;;;;5070816;28;20040;-45
2022/05/24 00:19:48;;;;;;;14.52;10.45;;;14.40;99.90;;;;;;5071437;28;20036;-46
2022/05/24 00:22:14;;;;;;;10.60;9.52;;;14.40;99.90;;;;;;5070202;28;20044;-45
2022/05/24 00:24:40;;;;;;;16.50;10.43;;;14.40;99.90;;;;;;5070306;28;20434;-46
2022/05/24 00:27:05;;;;;;;11.02;9.80;;;14.40;99.90;;;;;;5070878;28;20028;-47
2022/05/24 00:29:31;;;;;;;14.27;10.65;;;14.40;99.90;;;;;;5071370;28;20040;-46
2022/05/24 00:31:56;;;;;;;17.20;10.32;;;14.40;99.90;;;;;;5070042;28;20036;-47
2022/05/24 00:34:22;;;;;;;14.77;10.07;;;14.30;99.90;;;;;;5071232;28;20062;-46
2022/05/24 00:36:47;;;;;;;14.70;9.50;;;14.30;99.90;;;;;;5070038;28;20128;-45
2022/05/24 00:39:13;;;;;;;11.50;9.02;;;14.30;99.90;;;;;;5070006;28;20041;-47
2022/05/24 00:41:42;;;;;;;9.50;7.40;;;14.30;99.90;;;;;;5070109;28;20044;-45
2022/05/24 00:44:26;;;;;;;8.80;7.20;;;14.20;99.90;;;;;;5070456;28;20036;-46
2022/05/24 00:46:59;;;;;;;9.82;7.35;;;14.20;99.90;;;;;;5057524;28;20511;-46
2022/05/24 00:49:35;;;;;;;11.60;8.20;;;14.20;99.90;;;;;;5070294;28;20032;-46
2022/05/24 00:52:07;;;;;;;11.75;8.55;;;14.20;99.90;;;;;;5069794;28;20042;-46
2022/05/24 00:54:33;;;;;;;14.27;8.18;;;14.20;99.90;;;;;;5069666;28;20055;-46
2022/05/24 00:57:06;;;;;;;8.52;7.65;;;14.20;99.90;;;;;;5052656;28;20400;-46
2022/05/24 00:59:45;;;;;;;8.85;6.55;;;14.20;99.90;;;;;;5058975;28;20502;-46
2022/05/24 01:02:11;;;;;;;7.55;6.85;;;14.10;99.90;;;;;;5069696;28;20075;-46
2022/05/24 01:04:36;;;;;;;11.73;7.40;;;14.10;99.90;;;;;;5053545;28;20041;-47
2022/05/24 01:07:02;;;;;;;8.07;6.70;;;14.10;99.90;;;;;;5066778;28;20051;-45
2022/05/24 01:09:30;;;;;;;8.00;6.00;;;14.10;99.90;;;;;;5066216;28;20036;-46
2022/05/24 01:12:03;;;;;;;8.68;5.97;;;14.10;99.90;;;;;;5068642;28;20047;-46
2022/05/24 01:14:30;;;;;;;8.57;5.63;;;14.10;99.90;;;;;;5069774;28;20095;-46
2022/05/24 01:16:58;;;;;;;7.70;5.90;;;14.10;99.90;;;;;;5052320;28;20088;-45
2022/05/24 01:19:36;;;;;;;16.27;6.05;;;14.10;99.90;;;;;;5058208;28;20048;-46
2022/05/24 01:22:15;;;;;;;10.15;6.45;;;14.10;99.90;;;;;;5068746;28;20098;-46
2022/05/24 01:24:55;;;;;;;7.88;7.07;;;14.10;99.90;;;;;;5068860;28;20041;-45
2022/05/24 01:27:21;;;;;;;9.93;7.55;;;14.10;99.90;;;;;;5062917;28;20032;-45
2022/05/24 01:29:46;;;;;;;9.80;7.57;;;14.00;99.90;;;;;;5069373;28;20406;-45
2022/05/24 01:37:41;;;;;;;8.90;7.63;;;14.00;99.90;;;;;;5069455;28;20069;-46
2022/05/24 01:40:07;;;;;;;16.15;8.07;;;14.00;99.90;;;;;;5069425;28;20119;-46
2022/05/24 01:42:34;;;;;;;11.98;9.15;;;14.00;99.90;;;;;;5057824;28;20505;-45
2022/05/24 01:45:14;;;;;;;13.40;9.30;;;14.00;99.90;;;;;;5068069;28;20060;-45
2022/05/24 01:47:43;;;;;;;15.73;10.90;;;14.00;99.90;;;;;;5050237;28;20169;-46
2022/05/24 01:50:13;;;;;;;19.55;11.68;;;14.00;99.90;;;;;;5051102;28;20490;-46
2022/05/24 01:52:57;;;;;;;16.85;12.57;;;13.90;99.90;;;;;;5064504;28;20502;-46
2022/05/24 01:55:29;;;;;;;16.00;11.75;;;13.90;99.90;;;;;;5067834;28;20039;-46
2022/05/24 01:57:59;;;;;;;21.42;14.90;;;13.90;99.90;;;;;;5069923;28;20036;-46
2022/05/24 02:00:25;;;;;;;20.63;15.98;;;13.90;99.90;;;;;;5069454;28;20041;-46
2022/05/24 02:02:51;;;;;;;18.50;16.27;;;13.90;99.90;;;;;;5052765;28;20174;-47
2022/05/24 02:05:34;;;;;;;24.08;17.00;;;13.90;99.90;;;;;;5068229;28;20498;-45
2022/05/24 02:08:00;;;;;;;18.88;15.75;;;13.80;99.90;;;;;;5068563;28;20125;-46
2022/05/24 02:10:30;;;;;;;25.73;18.13;;;13.80;99.90;;;;;;5069462;28;20060;-45
2022/05/24 02:13:00;;;;;;;22.15;19.75;;;13.80;99.90;;;;;;5068706;28;20037;-45
2022/05/24 02:15:29;;;;;;;27.63;21.67;;;13.80;99.90;;;;;;5068784;28;20127;-47
2022/05/24 02:18:13;;;;;;;26.88;21.98;;;13.80;99.90;;;;;;5068878;28;20093;-45
2022/05/24 02:20:44;;;;;;;29.25;22.83;;;13.80;99.90;;;;;;5069651;28;20047;-45
2022/05/24 02:23:12;;;;;;;32.78;23.67;;;13.80;99.90;;;;;;5054928;28;20502;-46
2022/05/24 02:25:46;;;;;;;27.50;22.10;;;13.80;99.90;;;;;;5068369;28;20509;-47
2022/05/24 02:28:13;;;;;;;29.08;23.85;;;13.80;99.90;;;;;;5068768;28;20677;-45
2022/05/24 02:30:46;;;;;;;29.33;22.60;;;13.80;99.90;;;;;;5067959;28;20485;-46
2022/05/24 02:33:11;;;;;;;34.25;23.27;;;13.80;99.90;;;;;;5069067;28;20115;-45
2022/05/24 02:35:37;;;;;;;29.55;23.63;;;13.80;99.90;;;;;;5068768;28;20136;-46
2022/05/24 02:38:03;;;;;;;31.08;24.80;;;13.80;99.90;;;;;;5069576;28;20040;-46
2022/05/24 02:43:13;;;;;;;31.10;27.08;;;13.80;99.90;;;;;;5070853;28;19921;-46
2022/05/24 02:45:38;;;;;;;31.75;25.85;;;13.80;99.90;;;;;;5072395;28;20051;-45
2022/05/24 02:48:04;;;;;;;29.90;25.70;;;13.80;99.90;;;;;;5072881;28;20037;-46
2022/05/24 02:50:30;;;;;;;34.22;27.67;;;13.80;99.90;;;;;;5105142;28;20040;-46
2022/05/24 02:52:56;;;;;;;33.58;26.95;;;13.80;99.90;;;;;;5068063;28;20486;-46
2022/05/24 02:55:22;;;;;;;36.83;27.13;;;13.80;99.90;;;;;;5071851;28;20069;-46
2022/05/24 02:57:47;;;;;;;34.75;28.15;;;13.80;99.90;;;;;;5071751;28;20461;-45
2022/05/24 03:00:21;;;;;;;39.10;28.70;;;13.80;99.90;;;;;;5072903;28;20033;-46
2022/05/24 03:02:47;;;;;;;37.30;28.45;;;13.80;99.90;;;;;;5071752;28;20132;-47
2022/05/24 03:05:13;;;;;;;37.20;29.02;;;13.90;99.90;;;;;;5070285;28;20112;-46
2022/05/24 03:10:24;;;;;;;39.08;29.30;;;13.90;99.90;;;;;;5052797;28;20425;-46
2022/05/24 03:15:37;;;;;;;36.10;31.35;;;13.90;99.90;;;;;;5068549;28;20044;-47
2022/05/24 03:18:03;;;;;;;36.75;30.13;;;13.90;99.90;;;;;;5072265;28;20052;-46
2022/05/24 03:20:28;;;;;;;40.85;28.77;;;13.90;99.90;;;;;;5072657;28;20036;-46
2022/05/24 03:22:54;;;;;;;36.70;29.25;;;14.00;99.90;;;;;;5070915;28;20119;-45
2022/05/24 03:25:19;;;;;;;38.47;31.20;;;14.00;99.90;;;;;;5071152;28;20051;-46
2022/05/24 03:27:49;;;;;;;36.63;30.70;;;14.00;99.90;;;;;;5071862;28;20048;-46
2022/05/24 03:30:15;;;;;;;38.17;29.85;;;14.00;99.90;;;;;;5072006;28;20428;-46
2022/05/24 03:32:41;;;;;;;37.72;29.75;;;14.00;99.90;;;;;;5071597;28;20032;-47
2022/05/24 03:35:11;;;;;;;37.47;29.88;;;14.00;99.90;;;;;;5070049;28;20041;-46
2022/05/24 03:37:37;;;;;;;36.72;30.05;;;14.00;99.90;;;;;;5069498;28;20040;-45
2022/05/24 03:40:04;;;;;;;41.15;30.40;;;14.00;99.90;;;;;;5067928;28;20083;-45
2022/05/24 03:42:30;;;;;;;34.45;28.58;;;14.00;99.90;;;;;;5071165;28;20041;-45
2022/05/24 03:44:56;;;;;;;38.95;29.52;;;14.00;99.90;;;;;;5071017;28;20138;-46
2022/05/24 03:47:21;;;;;;;39.67;30.58;;;14.00;99.90;;;;;;5071717;28;20036;-46
2022/05/24 03:49:47;;;;;;;39.28;31.13;;;14.10;99.90;;;;;;5071572;28;20431;-46
2022/05/24 03:52:13;;;;;;;40.67;29.92;;;14.10;99.90;;;;;;5068711;28;20051;-45
2022/05/24 03:54:38;;;;;;;42.13;30.17;;;14.10;99.90;;;;;;5070801;28;20044;-46
2022/05/24 03:59:49;;;;;;;37.28;28.35;;;14.10;99.90;;;;;;5071606;28;20283;-46
2022/05/24 04:02:14;;;;;;;34.97;27.88;;;14.10;99.90;;;;;;5070654;28;20032;-45
2022/05/24 04:04:40;;;;;;;37.20;28.52;;;14.10;99.90;;;;;;5070394;28;20036;-46
2022/05/24 04:07:05;;;;;;;35.08;29.17;;;14.10;99.90;;;;;;5071495;28;20476;-45
2022/05/24 04:09:35;;;;;;;38.70;31.58;;;14.20;99.90;;;;;;5071316;28;20447;-46
2022/05/24 04:12:01;;;;;;;38.13;31.05;;;14.10;99.90;;;;;;5070497;28;20044;-45
2022/05/24 04:14:32;;;;;;;40.78;32.08;;;14.20;99.90;;;;;;5070245;28;20113;-46
2022/05/24 04:16:57;;;;;;;42.50;32.00;;;14.20;99.90;;;;;;5070693;28;20410;-46
2022/05/24 04:19:23;;;;;;;37.90;30.00;;;14.20;99.90;;;;;;5070165;28;20052;-46
2022/05/24 04:21:49;;;;;;;41.03;29.88;;;14.10;99.90;;;;;;5071539;28;20828;-45
2022/05/24 04:24:14;;;;;;;36.47;27.92;;;14.10;99.90;;;;;;5071477;28;20067;-45
2022/05/24 04:26:40;;;;;;;40.17;31.45;;;14.10;99.90;;;;;;5070919;28;20059;-45
2022/05/24 04:29:06;;;;;;;36.90;28.23;;;14.10;99.90;;;;;;5071358;28;20043;-45
2022/05/24 04:31:31;;;;;;;37.70;26.05;;;14.10;99.90;;;;;;5070134;28;20044;-46
2022/05/24 04:33:57;;;;;;;34.30;27.20;;;14.00;99.90;;;;;;5070195;28;20783;-45
2022/05/24 04:36:23;;;;;;;39.65;27.00;;;14.10;99.90;;;;;;5070476;28;20098;-45
2022/05/24 04:38:48;;;;;;;33.67;25.40;;;14.00;99.90;;;;;;5070063;28;20059;-45
2022/05/24 04:43:58;;;;;;;35.55;25.30;;;14.00;99.90;;;;;;5070320;28;20045;-47
2022/05/24 04:46:23;;;;;;;31.60;23.73;;;14.00;99.90;;;;;;5069494;28;20032;-45
2022/05/24 04:48:49;;;;;;;33.03;24.70;;;14.00;99.90;;;;;;5069181;28;20060;-45
2022/05/24 04:51:15;;;;;;;40.00;27.70;;;14.00;99.90;;;;;;5069678;28;20108;-46
2022/05/24 04:53:40;;;;;;;34.30;26.50;;;14.00;99.90;;;;;;5069559;28;20279;-48
2022/05/24 04:56:06;;;;;;;39.67;27.30;;;13.90;99.90;;;;;;5070098;28;20277;-45
2022/05/24 04:58:32;;;;;;;34.58;27.08;;;13.90;99.90;;;;;;5070297;28;20474;-46
2022/05/24 05:00:57;;;;;;;34.72;24.85;;;13.90;99.90;;;;;;5070058;28;20045;-46
2022/05/24 05:03:23;;;;;;;37.00;26.27;;;13.80;99.90;;;;;;5069582;28;20420;-45
2022/05/24 05:05:50;;;;;;;43.05;27.42;;;13.80;99.90;;;;;;5067631;28;20301;-45
2022/05/24 05:08:16;;;;;;;31.80;25.90;;;13.80;99.90;;;;;;5065181;28;20116;-45
2022/05/24 05:10:41;;;;;;;36.72;27.83;;;13.80;99.90;;;;;;5066434;28;20067;-45
2022/05/24 05:13:08;;;;;;;34.92;25.98;;;13.80;99.90;;;;;;5066659;28;20036;-45
2022/05/24 05:15:34;;;;;;;;;;;13.80;99.90;;;;;;5068080;28;20497;-46
2022/05/24 05:18:12;;;;;;;36.50;26.73;;;13.80;99.90;;;;;;5070098;28;19916;-46
2022/05/24 05:20:40;;;;;;;36.17;25.95;;;13.80;99.90;;;;;;5065583;28;20388;-47
2022/05/24 05:23:07;;;;;;;38.92;28.73;;;13.80;99.90;;;;;;5067426;28;20055;-47
2022/05/24 05:25:33;;;;;;;39.90;26.42;;;13.80;99.90;;;;;;5082834;28;20047;-45
2022/05/24 05:27:59;;;;;;;36.78;25.83;;;13.80;99.90;;;;;;5070115;28;20037;-46
2022/05/24 05:33:08;;;;;;;37.75;26.77;;;13.80;99.90;;;;;;5067812;28;20485;-46
2022/05/24 05:35:34;;;;;;;32.87;25.73;;;13.80;99.90;;;;;;5068906;28;20036;-46
2022/05/24 05:37:59;;;;;;;33.85;24.95;;;13.80;99.90;;;;;;5069405;28;20308;-46
2022/05/24 05:40:25;;;;;;;35.20;24.95;;;13.80;99.90;;;;;;5069566;28;20036;-45
2022/05/24 05:42:50;;;;;;;31.70;23.45;;;13.80;99.90;;;;;;5067949;28;20166;-46
2022/05/24 05:45:16;;;;;;;30.60;24.23;;;13.90;99.90;;;;;;5069249;28;20558;-45
2022/05/24 05:47:42;;;;;;;32.83;24.02;;;13.90;99.90;;;;;;5067542;28;20029;-45
2022/05/24 05:50:08;;;;;;;29.98;23.55;;;13.80;99.90;;;;;;5068616;28;20283;-46
2022/05/24 05:52:34;;;;;;;32.72;24.95;;;13.80;99.90;;;;;;5063424;28;20122;-45
2022/05/24 05:54:59;;;;;;;28.63;22.33;;;13.80;99.90;;;;;;5068997;28;20392;-45
2022/05/24 05:57:25;;;;;;;33.13;21.90;;;13.70;99.90;;;;;;5068806;28;20040;-45
2022/05/24 05:59:52;;;;;;;30.40;22.50;;;13.70;99.90;;;;;;5069691;28;20779;-45
2022/05/24 06:02:18;;;;;;;28.65;21.45;;;13.80;99.90;;;;;;5069334;28;20267;-45
2022/05/24 06:04:44;;;;;;;33.58;22.98;;;13.80;99.90;;;;;;5070002;28;20286;-46
2022/05/24 06:07:10;;;;;;;29.00;22.10;;;13.80;99.90;;;;;;5069046;28;20037;-45
2022/05/24 06:09:36;;;;;;;33.40;22.33;;;13.80;99.90;;;;;;5066779;28;20193;-45
2022/05/24 06:12:03;;;;;;;29.50;23.42;;;13.80;99.90;;;;;;5068755;28;20119;-45
2022/05/24 06:14:29;;;;;;;26.70;20.98;;;13.80;99.90;;;;;;5084758;28;20450;-49
2022/05/24 06:16:54;;;;;;;29.95;21.00;;;13.80;99.90;;;;;;5090013;28;20028;-44
2022/05/24 06:19:20;;;;;;;31.10;20.65;;;13.80;99.90;;;;;;5092442;28;20124;-46
2022/05/24 06:21:46;;;;;;;30.02;21.25;;;13.90;99.90;;;;;;5089608;28;20488;-45
2022/05/24 06:24:11;;;;;;;26.98;20.25;;;13.90;99.90;;;;;;5092508;28;20040;-46
2022/05/24 06:26:37;;;;;;;28.17;20.20;;;13.90;99.90;;;;;;5091605;28;20482;-45
2022/05/24 06:29:05;;;;;;;25.35;19.70;;;13.90;99.90;;;;;;5091608;28;20064;-45
2022/05/24 06:31:30;;;;;;;26.27;20.60;;;13.90;99.90;;;;;;5088646;28;20028;-45
2022/05/24 06:33:56;;;;;;;24.13;18.48;;;14.00;99.90;;;;;;5091730;28;20054;-46
2022/05/24 06:36:21;;;;;;;24.15;18.80;;;13.90;99.90;;;;;;5091815;28;20040;-47
2022/05/24 06:38:47;;;;;;;23.15;17.50;;;14.00;99.90;;;;;;5091924;28;20513;-46
2022/05/24 06:41:13;;;;;;;25.35;18.65;;;13.90;99.90;;;;;;5084515;28;20028;-46
2022/05/24 06:43:38;;;;;;;26.88;20.20;;;13.90;99.90;;;;;;5083895;28;20044;-47
2022/05/24 06:46:07;;;;;;;25.60;17.53;;;14.00;99.90;;;;;;5086050;28;20107;-47
2022/05/24 06:48:35;;;;;;;23.60;17.15;;;13.90;99.90;;;;;;5084048;28;20364;-46
2022/05/24 06:51:02;;;;;;;23.63;17.38;;;13.90;99.90;;;;;;5092114;28;20462;-47
2022/05/24 06:53:27;;;;;;;25.67;16.70;;;13.90;99.90;;;;;;5088865;28;20043;-46
2022/05/24 06:55:53;;;;;;;22.27;16.88;;;13.90;99.90;;;;;;5082595;28;20036;-46
2022/05/24 06:58:18;;;;;;;30.03;16.77;;;13.80;99.90;;;;;;5082916;28;20036;-46
2022/05/24 07:03:28;;;;;;;20.08;14.85;;;13.80;99.90;;;;;;5091230;28;20048;-45
2022/05/24 07:05:54;;;;;;;24.57;15.83;;;13.80;99.90;;;;;;5083714;28;20032;-45
2022/05/24 07:08:20;;;;;;;20.88;15.48;;;13.80;99.90;;;;;;5091852;28;20400;-46
2022/05/24 07:10:45;;;;;;;24.27;16.23;;;13.80;99.90;;;;;;5091181;28;20054;-45
2022/05/24 07:13:16;;;;;;;25.42;15.63;;;13.80;99.90;;;;;;5089189;28;20493;-46
2022/05/24 07:15:41;;;;;;;19.50;14.95;;;13.80;99.90;;;;;;5084475;28;20135;-45
2022/05/24 07:18:07;;;;;;;20.17;15.17;;;13.70;99.90;;;;;;5083319;28;20114;-45
2022/05/24 07:20:34;;;;;;;31.52;16.23;;;13.70;99.90;;;;;;5081917;28;20093;-46
2022/05/24 07:23:18;;;;;;;24.80;17.80;;;13.70;99.90;;;;;;5087095;28;20423;-45
2022/05/24 07:25:45;;;;;;;23.98;15.73;;;13.70;99.90;;;;;;5087620;28;20120;-45
2022/05/24 07:28:15;;;;;;;21.75;15.73;;;13.70;99.90;;;;;;5084897;28;20058;-45
2022/05/24 07:30:41;;;;;;;21.45;15.98;;;13.70;99.90;;;;;;5089651;28;20119;-46
2022/05/24 07:33:07;;;;;;;21.20;15.27;;;13.80;99.90;;;;;;5090865;28;20114;-46
2022/05/24 07:35:33;;;;;;;21.83;15.35;;;13.80;99.90;;;;;;5090523;28;20542;-45
2022/05/24 07:37:59;;;;;;;20.38;14.68;;;13.80;99.90;;;;;;5088877;28;20123;-46
2022/05/24 07:46:00;;;;;;;21.10;14.93;;;13.80;99.90;;;;;;5086158;28;20044;-47
2022/05/24 07:48:26;;;;;;;21.38;14.57;;;13.80;99.90;;;;;;5089038;28;20036;-45
2022/05/24 07:50:51;;;;;;;17.92;13.25;;;13.80;99.90;;;;;;5087250;28;20459;-46
2022/05/24 07:53:18;;;;;;;18.20;13.00;;;13.80;99.90;;;;;;5090576;28;20447;-46
2022/05/24 07:55:44;;;;;;;20.55;13.63;;;13.80;99.90;;;;;;5089783;28;20039;-46
2022/05/24 07:58:10;;;;;;;21.10;13.30;;;13.80;99.90;;;;;;5088566;28;20042;-45
2022/05/24 08:00:36;;;;;;;19.52;13.95;;;13.80;99.90;;;;;;5090114;28;20480;-45
2022/05/24 08:03:04;;;;;;;18.25;12.20;;;13.80;99.90;;;;;;5089487;28;20386;-45
2022/05/24 08:05:32;;;;;;;22.08;12.73;;;13.90;99.90;;;;;;5086380;28;20411;-45
2022/05/24 08:07:58;;;;;;;14.35;12.73;;;13.90;99.90;;;;;;5090667;28;20109;-45
2022/05/24 08:10:24;;;;;;;23.42;12.65;;;13.90;99.90;;;;;;5089706;28;20431;-46
2022/05/24 08:12:50;;;;;;;15.63;12.48;;;14.00;99.90;;;;;;5084320;28;20101;-46
2022/05/24 08:15:15;;;;;;;16.60;12.50;;;14.00;99.90;;;;;;5086114;28;20032;-46
2022/05/24 08:17:41;;;;;;;16.83;12.18;;;14.10;99.90;;;;;;5089859;28;20101;-45
2022/05/24 08:20:11;;;;;;;18.98;13.70;;;14.20;99.90;;;;;;5079923;28;20050;-45
2022/05/24 08:22:38;;;;;;;17.08;11.85;;;14.30;99.90;;;;;;5066978;28;20044;-46
2022/05/24 08:25:06;;;;;;;21.70;12.35;;;14.30;99.90;;;;;;5078371;28;20036;-45
2022/05/24 08:27:32;;;;;;;20.40;12.93;;;14.30;99.90;;;;;;5085494;28;20044;-47
2022/05/24 08:29:59;;;;;;;16.98;12.57;;;14.40;99.90;;;;;;5090274;28;20047;-46
2022/05/24 08:32:25;;;;;;;17.05;13.45;;;14.40;99.90;;;;;;5088309;28;20040;-46
2022/05/24 08:34:50;;;;;;;14.40;12.30;;;14.50;99.90;;;;;;5086244;28;20047;-46
2022/05/24 08:37:16;;;;;;;17.27;12.43;;;14.60;99.90;;;;;;5087385;28;20086;-46
2022/05/24 08:39:41;;;;;;;17.40;12.05;;;14.70;99.90;;;;;;5078037;28;20385;-46
2022/05/24 08:42:25;;;;;;;17.15;9.55;;;14.80;99.90;;;;;;5085822;28;20413;-46
2022/05/24 08:48:23;;;;;;;11.90;9.95;;;14.80;99.90;;;;;;5080217;28;20036;-46
2022/05/24 08:50:57;;;;;;;14.68;9.98;;;14.80;99.90;;;;;;5076150;28;20040;-45
2022/05/24 08:53:33;;;;;;;15.60;10.23;;;15.00;99.90;;;;;;5079960;28;20047;-46
2022/05/24 08:55:59;;;;;;;14.60;10.02;;;15.00;99.90;;;;;;5083854;28;20048;-49
2022/05/24 08:58:30;;;;;;;14.38;8.57;;;15.10;99.90;;;;;;5084532;28;20040;-45
2022/05/24 09:00:56;;;;;;;9.07;8.18;;;15.30;99.90;;;;;;5087035;28;20046;-47
2022/05/24 09:03:25;;;;;;;10.77;7.50;;;15.40;99.90;;;;;;5079816;28;20480;-47
2022/05/24 09:05:57;;;;;;;11.48;7.25;;;15.40;99.90;;;;;;5080564;28;20077;-46
2022/05/24 09:08:29;;;;;;;11.85;5.28;;;15.30;99.90;;;;;;5088731;28;20036;-48
2022/05/24 09:11:01;;;;;;;7.68;4.82;;;15.20;99.90;;;;;;5088405;28;20036;-46
2022/05/24 09:13:35;;;;;;;6.25;4.45;;;15.30;99.90;;;;;;5087765;28;20036;-46
2022/05/24 09:16:09;;;;;;;9.50;4.18;;;15.40;99.90;;;;;;5083865;28;20051;-46
2022/05/24 09:18:47;;;;;;;7.60;3.78;;;15.50;99.90;;;;;;5075064;28;20035;-46
2022/05/24 09:21:29;;;;;;;5.50;3.67;;;15.60;99.90;;;;;;5079755;28;20036;-46
2022/05/24 09:24:26;;;;;;;6.95;5.13;;;15.70;99.90;;;;;;5086499;28;20598;-45
2022/05/24 09:27:17;;;;;;;5.40;4.75;;;15.80;99.90;;;;;;5076985;28;20476;-46
2022/05/24 09:29:59;;;;;;;7.43;5.28;;;15.70;99.90;;;;;;5074387;28;20236;-46
2022/05/24 09:32:34;;;;;;;6.53;4.95;;;15.60;99.90;;;;;;5071434;28;20067;-47
2022/05/24 09:35:04;;;;;;;8.40;5.68;;;15.50;99.90;;;;;;5086036;28;20122;-46
2022/05/24 09:37:30;;;;;;;10.35;5.68;;;15.50;99.90;;;;;;5089097;28;20036;-46
2022/05/24 09:40:18;;;;;;;6.55;5.03;;;15.50;99.90;;;;;;5087870;28;20039;-45
2022/05/24 09:42:43;;;;;;;9.93;6.30;;;15.50;99.90;;;;;;5087784;28;20508;-46
2022/05/24 09:45:21;;;;;;;8.63;5.40;;;15.50;99.90;;;;;;5087896;28;20028;-46
2022/05/24 09:47:54;;;;;;;7.68;5.15;;;15.40;99.90;;;;;;5073064;28;20440;-46
2022/05/24 09:50:31;;;;;;;11.43;5.15;;;15.30;99.90;;;;;;5074256;28;20040;-46
2022/05/24 09:53:02;;;;;;;;;;;15.20;99.90;;;;;;5073932;28;20037;-46
2022/05/24 09:55:38;;;;;;;7.35;3.70;;;15.10;99.90;;;;;;5073367;28;19917;-46
2022/05/24 09:58:30;;;;;;;5.25;3.33;;;15.00;99.90;;;;;;5073495;28;20490;-46
2022/05/24 10:00:57;;;;;;;20.77;4.75;;;14.80;99.90;;;;;;5078780;28;20047;-45
2022/05/24 10:03:33;;;;;;;12.15;2.83;;;14.60;99.90;;;;;;5079733;28;20047;-46
2022/05/24 10:06:09;;;;;;;9.25;3.28;;;14.30;99.90;;;;;;5073657;28;20473;-45
2022/05/24 10:08:41;;;;;;;4.45;3.33;;;14.10;99.90;;;;;;5087435;28;20036;-46
2022/05/24 10:11:18;;;;;;;10.00;2.55;;;14.00;99.90;;;;;;5088524;28;20047;-45
2022/05/24 10:13:53;;;;;;;5.97;2.15;;;13.90;99.90;;;;;;5087086;28;20036;-46
2022/05/24 10:16:38;;;;;;;7.90;3.13;;;13.90;99.90;;;;;;5087537;28;20122;-46
2022/05/24 10:19:32;;;;;;;6.15;4.93;;;14.10;99.90;;;;;;5085765;28;20111;-46
2022/05/24 10:22:02;;;;;;;11.80;10.68;;;14.30;99.90;;;;;;5081017;28;20032;-45
2022/05/24 10:24:38;;;;;;;10.95;9.80;;;14.60;99.90;;;;;;5083376;28;20024;-45
2022/05/24 10:27:08;;;;;;;9.88;7.55;;;14.90;99.90;;;;;;5088288;28;20028;-46
2022/05/24 10:30:01;;;;;;;14.05;8.68;;;15.20;99.90;;;;;;5084775;28;20032;-46
2022/05/24 10:39:11;;;;;;;8.20;2.35;;;15.40;99.90;;;;;;5079394;28;20044;-46
2022/05/24 10:42:01;;;;;;;1.85;0.40;;;15.10;99.90;;;;;;5082480;28;20048;-46
2022/05/24 10:44:49;;;;;;;2.05;0.60;;;14.70;99.90;;;;;;5087474;28;20389;-45
2022/05/24 10:47:43;;;;;;;1.13;0.50;;;14.20;99.90;;;;;;5085118;28;20036;-46
2022/05/24 10:50:16;;;;;;;1.10;0.75;;;14.00;99.90;;;;;;5076535;28;20054;-46
2022/05/24 10:52:44;;;;;;;1.38;0.63;;;13.80;99.90;;;;;;5068005;28;20106;-46
2022/05/24 10:55:15;;;;;;;5.50;0.60;;;13.70;99.90;;;;;;5081720;28;20036;-45
2022/05/24 10:57:58;;;;;;;3.08;1.02;;;13.60;99.90;;;;;;5073417;28;20101;-45
2022/05/24 11:00:32;;;;;;;3.15;0.70;;;13.40;99.90;;;;;;5084601;28;20124;-45
2022/05/24 11:03:12;;;;;;;1.52;0.40;;;13.30;99.90;;;;;;5079342;28;20048;-46
2022/05/24 11:05:46;;;;;;;2.83;0.57;;;13.30;99.90;;;;;;5086421;28;20040;-46
2022/05/24 11:08:33;;;;;;;1.17;0.80;;;13.20;99.90;;;;;;5084689;28;20496;-45
2022/05/24 11:11:22;;;;;;;2.03;0.93;;;13.30;99.90;;;;;;5086974;28;20063;-46
2022/05/24 11:14:02;;;;;;;1.35;1.20;;;13.30;99.90;;;;;;5086208;28;20056;-46
2022/05/24 11:16:48;;;;;;;3.40;1.92;;;13.40;99.90;;;;;;5089024;28;20127;-46
2022/05/24 11:19:40;;;;;;;3.50;2.17;;;13.50;99.90;;;;;;5089118;28;20051;-46
2022/05/24 11:22:20;;;;;;;3.03;2.45;;;13.70;99.90;;;;;;5086446;28;20044;-46
2022/05/24 11:25:19;;;;;;;2.92;2.65;;;13.90;99.90;;;;;;5087470;28;20591;-45
2022/05/24 11:28:09;;;;;;;4.05;2.97;;;14.10;99.90;;;;;;5083964;28;20041;-46
2022/05/24 11:30:41;;;;;;;5.45;2.97;;;14.30;99.90;;;;;;5066283;28;20036;-46
2022/05/24 11:33:13;;;;;;;4.72;2.88;;;14.40;99.90;;;;;;5085879;28;20039;-46
2022/05/24 11:35:42;;;;;;;2.75;2.58;;;14.50;99.90;;;;;;5085544;28;20435;-46
2022/05/24 11:38:41;;;;;;;2.35;0.40;;;14.60;99.90;;;;;;5081368;28;20436;-45
2022/05/24 11:41:11;;;;;;;0.50;0.15;;;14.50;99.90;;;;;;5075989;28;20457;-46
2022/05/24 11:43:43;;;;;;;0.35;0.10;;;14.40;99.90;;;;;;5089832;28;20066;-47
2022/05/24 11:46:33;;;;;;;1.58;0.35;;;14.30;99.90;;;;;;5090499;28;20036;-46
2022/05/24 11:49:04;;;;;;;1.35;0.40;;;14.30;99.90;;;;;;5090596;28;20071;-46
2022/05/24 11:51:46;;;;;;;3.13;0.60;;;14.30;99.90;;;;;;5089581;28;20035;-46
2022/05/24 11:54:18;;;;;;;1.30;0.50;;;14.20;99.90;;;;;;5085572;28;20044;-46
2022/05/24 11:57:01;;;;;;;4.07;0.82;;;14.20;99.90;;;;;;5084512;28;20072;-46
2022/05/24 11:59:48;;;;;;;0.93;0.70;;;14.20;99.90;;;;;;5084675;28;20097;-47
2022/05/24 12:02:26;;;;;;;1.98;0.70;;;14.30;99.90;;;;;;5085136;28;20035;-46
2022/05/24 12:08:04;;;;;;;2.17;0.80;;;14.40;99.90;;;;;;5088426;28;20044;-46
2022/05/24 12:10:34;;;;;;;2.80;0.85;;;14.40;99.90;;;;;;5090452;28;20454;-46
2022/05/24 12:13:03;;;;;;;3.15;1.00;;;14.40;99.90;;;;;;5085112;28;20043;-46
2022/05/24 12:15:32;;;;;;;2.08;1.10;;;14.30;99.90;;;;;;5089000;28;20039;-46
2022/05/24 12:17:58;;;;;;;4.05;1.13;;;14.30;99.90;;;;;;5086488;28;20464;-46
2022/05/24 12:20:34;;;;;;;2.63;1.73;;;14.40;99.90;;;;;;5091236;28;20123;-46
2022/05/24 12:23:06;;;;;;;;;;;14.40;99.90;;;;;;5086989;28;20126;-45
2022/05/24 12:25:53;;;;;;;3.45;0.90;;;14.50;99.90;;;;;;5089727;28;19931;-46
2022/05/24 12:28:21;;;;;;;1.92;0.80;;;14.50;99.90;;;;;;5080177;28;20033;-46
2022/05/24 12:30:49;;;;;;;2.13;1.13;;;14.40;99.90;;;;;;5084999;28;20044;-46
2022/05/24 12:33:21;;;;;;;2.15;1.50;;;14.30;99.90;;;;;;5083048;28;20067;-47
2022/05/24 12:36:05;;;;;;;1.95;1.08;;;14.20;99.90;;;;;;5085139;28;20145;-46
2022/05/24 12:38:33;;;;;;;2.90;1.40;;;14.20;99.90;;;;;;5089018;28;20039;-46
2022/05/24 12:41:44;;;;;;;2.90;1.20;;;14.10;99.90;;;;;;5089761;28;20520;-48
2022/05/24 12:44:15;;;;;;;3.17;1.55;;;14.10;99.90;;;;;;5089497;28;20101;-46
2022/05/24 12:46:47;;;;;;;3.63;1.70;;;14.00;99.90;;;;;;5087601;28;20569;-46
2022/05/24 12:49:23;;;;;;;2.50;2.30;;;14.00;99.90;;;;;;5089725;28;20038;-46
2022/05/24 12:51:54;;;;;;;2.63;2.00;;;14.00;99.90;;;;;;5087665;28;20028;-46
2022/05/24 12:54:33;;;;;;;2.47;1.98;;;14.10;99.90;;;;;;5087164;28;20290;-46
2022/05/24 12:57:15;;;;;;;7.10;2.00;;;14.10;99.90;;;;;;5086409;28;20064;-46
2022/05/24 12:59:43;;;;;;;2.65;2.20;;;14.10;99.90;;;;;;5079449;28;20064;-46
2022/05/24 13:02:25;;;;;;;1.95;1.80;;;14.20;99.90;;;;;;5086003;28;20043;-45
2022/05/24 13:04:51;;;;;;;5.28;2.47;;;14.30;99.90;;;;;;5082760;28;20041;-47
2022/05/24 13:07:36;;;;;;;2.67;2.03;;;14.40;99.90;;;;;;5086575;28;20059;-46
2022/05/24 13:10:06;;;;;;;2.13;1.50;;;14.50;99.90;;;;;;5089448;28;20090;-47
2022/05/24 13:12:32;;;;;;;2.38;1.00;;;14.60;99.90;;;;;;5081345;28;20040;-47
2022/05/24 13:14:59;;;;;;;;;;;14.60;99.90;;;;;;5083453;28;20114;-47
2022/05/24 13:17:28;;;;;;;0.73;0.52;;;14.70;99.90;;;;;;5085322;28;19920;-46
2022/05/24 13:20:03;;;;;;;5.72;1.00;;;14.80;99.90;;;;;;5085917;28;20040;-48
2022/05/24 13:22:48;;;;;;;7.50;0.85;;;15.00;99.90;;;;;;5084536;28;20613;-48
2022/05/24 13:25:18;;;;;;;2.10;0.80;;;15.20;99.90;;;;;;5087624;28;20505;-47
2022/05/24 13:27:59;;;;;;;3.15;0.80;;;15.40;99.90;;;;;;5081911;28;20032;-46
2022/05/24 13:33:46;;;;;;;4.20;1.52;;;15.60;99.90;;;;;;5073819;28;20059;-46
2022/05/24 13:36:20;;;;;;;3.90;1.10;;;15.60;99.90;;;;;;5088489;28;20048;-47
2022/05/24 13:39:12;;;;;;;4.18;1.50;;;15.60;99.90;;;;;;5084376;28;20039;-47
2022/05/24 13:41:57;;;;;;;2.97;1.42;;;15.60;99.90;;;;;;5079362;28;20040;-47